Terminal Aerodrome Forecast
Issued by NWS Sioux Falls, SD

Home | Current Version | Previous Version | Graphics & Text | Print | Product List | Glossary On
Versions: 1 2 3 4 5 6 7 8 9 10 11 12 13 14 15 16 17 18
000
FTUS43 KFSD 240546
TAFHON
TAF
KHON 240546Z 2406/2506 15013G20KT P6SM OVC150
     FM240900 15013G21KT P6SM FEW060 OVC100
     FM241300 15016G24KT P6SM SCT015 OVC060
      TEMPO 2414/2416 P6SM -SHRA BKN015
     FM241600 16014G23KT 5SM -RA BR OVC018
     FM242000 16012G19KT P6SM BKN025
     FM242300 16008KT P6SM SCT025=

USA.gov is the U.S. government's official web portal to all federal, state and local government web resources and services.